createdAt,value
2019-06-15T00:01:53.441Z,19.10
2019-06-15T00:04:22.381Z,19.20
2019-06-15T00:06:51.243Z,19.20
2019-06-15T00:09:19.853Z,19.10
2019-06-15T00:11:48.537Z,19.10
2019-06-15T00:14:17.793Z,19.10
2019-06-15T00:16:46.412Z,19.10
2019-06-15T00:19:15.105Z,19.00
2019-06-15T00:21:43.739Z,19.00
2019-06-15T00:24:12.317Z,19.00
2019-06-15T00:26:40.904Z,18.90
2019-06-15T00:29:09.593Z,18.90
2019-06-15T00:31:38.177Z,18.90
2019-06-15T00:34:06.797Z,18.90
2019-06-15T00:36:35.736Z,18.90
2019-06-15T00:39:06.131Z,18.90
2019-06-15T00:41:34.813Z,18.90
2019-06-15T00:44:03.677Z,18.90
2019-06-15T00:46:32.468Z,18.90
2019-06-15T00:49:01.368Z,18.80
2019-06-15T00:51:29.953Z,18.80
2019-06-15T00:53:58.825Z,18.90
2019-06-15T00:56:27.712Z,18.80
2019-06-15T00:58:56.297Z,18.90
2019-06-15T01:01:24.930Z,18.90
2019-06-15T01:03:54.602Z,18.90
2019-06-15T01:06:23.427Z,18.90
2019-06-15T01:08:52.077Z,18.90
2019-06-15T01:11:20.654Z,18.90
2019-06-15T01:13:52.250Z,18.90
2019-06-15T01:16:20.830Z,18.90
2019-06-15T01:18:49.441Z,19.00
2019-06-15T01:21:18.075Z,19.00
2019-06-15T01:23:46.686Z,19.10
2019-06-15T01:26:15.576Z,19.10
2019-06-15T01:28:44.160Z,19.10
2019-06-15T01:31:12.773Z,19.10
2019-06-15T01:33:41.361Z,19.10
2019-06-15T01:36:10.372Z,19.10
2019-06-15T01:38:38.973Z,19.10
2019-06-15T01:41:07.580Z,19.10
2019-06-15T01:43:36.163Z,19.10
2019-06-15T01:46:04.789Z,19.10
2019-06-15T01:48:33.433Z,19.20
2019-06-15T01:51:02.034Z,19.20
2019-06-15T01:53:30.640Z,19.20
2019-06-15T01:55:59.533Z,19.20
2019-06-15T01:58:28.120Z,19.20
2019-06-15T02:00:56.696Z,19.20
2019-06-15T02:03:25.418Z,19.20
2019-06-15T02:05:53.998Z,19.20
2019-06-15T02:08:22.581Z,19.10
2019-06-15T02:10:51.200Z,19.20
2019-06-15T02:13:19.865Z,19.20
2019-06-15T02:15:48.500Z,19.10
2019-06-15T02:18:17.110Z,19.10
2019-06-15T02:20:45.728Z,19.00
2019-06-15T02:23:14.582Z,19.00
2019-06-15T02:25:43.527Z,18.90
2019-06-15T02:28:12.237Z,18.90
2019-06-15T02:30:40.853Z,18.90
2019-06-15T02:33:09.478Z,18.90
2019-06-15T02:35:38.065Z,19.00
2019-06-15T02:38:06.641Z,19.00
2019-06-15T02:40:35.398Z,19.00
2019-06-15T02:43:04.081Z,19.00
2019-06-15T02:45:32.953Z,19.00
2019-06-15T02:48:01.587Z,19.10
2019-06-15T02:50:30.164Z,19.10
2019-06-15T02:52:59.066Z,19.10
2019-06-15T02:55:27.713Z,19.10
2019-06-15T02:57:56.337Z,19.20
2019-06-15T03:00:30.525Z,19.20
2019-06-15T03:02:59.110Z,19.20
2019-06-15T03:05:27.894Z,19.20
2019-06-15T03:07:56.671Z,19.20
2019-06-15T03:10:26.249Z,19.30
2019-06-15T03:12:54.834Z,19.30
2019-06-15T03:15:23.821Z,19.30
2019-06-15T03:17:53.241Z,19.30
2019-06-15T03:20:21.858Z,19.30
2019-06-15T03:22:50.441Z,19.40
2019-06-15T03:25:19.570Z,19.40
2019-06-15T03:27:48.174Z,19.40
2019-06-15T03:30:17.273Z,19.40
2019-06-15T03:32:45.863Z,19.40
2019-06-15T03:35:16.105Z,19.40
2019-06-15T03:37:44.687Z,19.40
2019-06-15T03:40:14.977Z,19.40
2019-06-15T03:42:43.671Z,19.40
2019-06-15T03:45:12.549Z,19.40
2019-06-15T03:47:41.468Z,19.30
2019-06-15T03:50:10.949Z,19.30
2019-06-15T03:52:39.542Z,19.30
2019-06-15T03:55:08.837Z,19.30
2019-06-15T03:57:37.608Z,19.20
2019-06-15T04:00:21.114Z,19.10
2019-06-15T04:02:49.722Z,19.10
2019-06-15T04:05:18.336Z,19.00
2019-06-15T04:07:46.954Z,19.00
2019-06-15T04:10:15.546Z,19.00
2019-06-15T04:12:44.154Z,18.90
2019-06-15T04:15:13.006Z,18.80
2019-06-15T04:17:41.622Z,18.70
2019-06-15T04:20:10.466Z,18.70
2019-06-15T04:22:39.329Z,18.60
2019-06-15T04:25:08.001Z,18.60
2019-06-15T04:27:36.857Z,18.50
2019-06-15T04:30:09.112Z,18.40
2019-06-15T04:32:37.688Z,18.30
2019-06-15T04:35:07.877Z,18.30
2019-06-15T04:37:36.498Z,18.20
2019-06-15T04:40:07.816Z,18.20
2019-06-15T04:42:36.512Z,18.20
2019-06-15T04:45:05.772Z,18.10
2019-06-15T04:47:34.466Z,18.10
2019-06-15T04:50:03.064Z,18.10
2019-06-15T04:52:31.687Z,18.00
2019-06-15T04:55:00.665Z,18.00
2019-06-15T04:57:30.188Z,18.00
2019-06-15T04:59:59.077Z,18.00
2019-06-15T05:02:27.718Z,18.00
2019-06-15T05:04:56.285Z,18.00
2019-06-15T05:07:24.868Z,18.00
2019-06-15T05:09:53.768Z,18.00
2019-06-15T05:12:22.352Z,17.90
2019-06-15T05:14:50.945Z,17.90
2019-06-15T05:17:19.598Z,17.70
2019-06-15T05:19:48.457Z,17.60
2019-06-15T05:22:17.060Z,17.50
2019-06-15T05:24:45.745Z,17.40
2019-06-15T05:27:14.375Z,17.40
2019-06-15T05:29:42.967Z,17.40
2019-06-15T05:32:11.596Z,17.40
2019-06-15T05:34:40.217Z,17.50
2019-06-15T05:37:08.805Z,17.50
2019-06-15T05:39:37.427Z,17.50
2019-06-15T05:42:06.177Z,17.50
2019-06-15T05:44:34.793Z,17.50
2019-06-15T05:47:03.387Z,17.50
2019-06-15T05:49:32.339Z,17.50
2019-06-15T05:52:01.361Z,17.50
2019-06-15T05:54:30.309Z,17.50
2019-06-15T05:56:59.141Z,17.50
2019-06-15T05:59:27.776Z,17.50
2019-06-15T06:01:56.383Z,17.40
2019-06-15T06:04:25.290Z,17.30
2019-06-15T06:06:53.869Z,17.20
2019-06-15T06:09:22.769Z,17.20
2019-06-15T06:11:51.362Z,17.10
2019-06-15T06:14:20.269Z,17.10
2019-06-15T06:16:49.209Z,17.20
2019-06-15T06:19:17.849Z,17.20
2019-06-15T06:21:46.433Z,17.20
2019-06-15T06:24:15.317Z,17.30
2019-06-15T06:26:44.224Z,17.20
2019-06-15T06:29:13.052Z,17.30
2019-06-15T06:31:42.001Z,17.30
2019-06-15T06:34:10.588Z,17.30
2019-06-15T06:36:39.781Z,17.40
2019-06-15T06:39:08.849Z,17.40
2019-06-15T06:41:37.494Z,17.40
2019-06-15T06:44:06.193Z,17.40
2019-06-15T06:46:34.780Z,17.40
2019-06-15T06:49:03.646Z,17.30
2019-06-15T06:51:32.269Z,17.30
2019-06-15T06:54:01.457Z,17.20
2019-06-15T06:56:30.065Z,17.30
2019-06-15T06:58:58.705Z,17.30
2019-06-15T07:01:27.269Z,17.40
2019-06-15T07:03:55.905Z,17.50
2019-06-15T07:06:24.509Z,17.60
2019-06-15T07:08:53.414Z,17.80
2019-06-15T07:11:22.054Z,18.00
2019-06-15T07:13:50.629Z,18.20
2019-06-15T07:16:19.406Z,18.20
2019-06-15T07:18:48.040Z,18.30
2019-06-15T07:21:16.629Z,18.40
2019-06-15T07:23:45.489Z,18.60
2019-06-15T07:26:14.391Z,18.70
2019-06-15T07:28:43.024Z,18.80
2019-06-15T07:31:11.796Z,18.80
2019-06-15T07:33:40.384Z,18.80
2019-06-15T07:36:09.289Z,18.80
2019-06-15T07:38:37.945Z,18.80
2019-06-15T07:41:06.525Z,18.80
2019-06-15T07:43:35.155Z,18.80
2019-06-15T07:46:03.937Z,18.90
2019-06-15T07:48:32.645Z,18.90
2019-06-15T07:51:01.869Z,18.90
2019-06-15T07:53:30.453Z,18.90
2019-06-15T07:55:59.402Z,18.90
2019-06-15T07:58:27.989Z,18.90
2019-06-15T08:00:56.913Z,19.00
2019-06-15T08:03:25.612Z,19.00
2019-06-15T08:05:54.233Z,19.00
2019-06-15T08:08:22.966Z,19.00
2019-06-15T08:10:52.410Z,19.00
2019-06-15T08:13:21.040Z,19.00
2019-06-15T08:15:49.647Z,19.10
2019-06-15T08:18:18.262Z,19.20
2019-06-15T08:20:47.344Z,19.30
2019-06-15T08:23:16.376Z,19.30
2019-06-15T08:25:44.997Z,19.30
2019-06-15T08:28:13.610Z,19.30
2019-06-15T08:30:43.232Z,19.30
2019-06-15T08:33:12.122Z,19.30
2019-06-15T08:35:40.948Z,19.30
2019-06-15T08:38:09.635Z,19.30
2019-06-15T08:40:38.280Z,19.40
2019-06-15T08:43:07.142Z,19.40
2019-06-15T08:45:35.726Z,19.50
2019-06-15T08:48:04.685Z,19.50
2019-06-15T08:50:33.597Z,19.50
2019-06-15T08:53:02.233Z,19.60
2019-06-15T08:55:30.853Z,19.60
2019-06-15T08:57:59.771Z,19.60
2019-06-15T09:00:28.749Z,19.60
2019-06-15T09:02:57.403Z,19.70
2019-06-15T09:05:26.065Z,19.80
2019-06-15T09:07:55.022Z,19.90
2019-06-15T09:10:23.605Z,20.00
2019-06-15T09:12:52.545Z,20.20
2019-06-15T09:15:26.805Z,20.20
2019-06-15T09:17:55.736Z,20.30
2019-06-15T09:20:24.363Z,20.30
2019-06-15T09:22:52.946Z,20.30
2019-06-15T09:25:21.865Z,20.20
2019-06-15T09:27:50.455Z,20.10
2019-06-15T09:30:19.180Z,20.10
2019-06-15T09:32:48.149Z,20.00
2019-06-15T09:35:16.925Z,20.00
2019-06-15T09:37:47.419Z,19.90
2019-06-15T09:40:17.074Z,20.00
2019-06-15T09:42:46.090Z,20.00
2019-06-15T09:45:15.394Z,19.90
2019-06-15T09:47:44.298Z,20.00
2019-06-15T09:50:13.364Z,20.00
2019-06-15T09:52:42.162Z,20.10
2019-06-15T09:55:12.108Z,20.10
2019-06-15T09:57:40.735Z,20.10
2019-06-15T10:00:10.973Z,20.10
2019-06-15T10:02:39.633Z,20.10
2019-06-15T10:05:09.193Z,20.20
2019-06-15T10:07:37.849Z,20.20
2019-06-15T10:10:09.146Z,20.20
2019-06-15T10:12:37.827Z,20.30
2019-06-15T10:15:09.347Z,20.20
2019-06-15T10:17:38.121Z,20.10
2019-06-15T10:20:08.254Z,20.10
2019-06-15T10:22:36.913Z,20.20
2019-06-15T10:25:06.906Z,20.20
2019-06-15T10:27:35.644Z,20.20
2019-06-15T10:30:06.075Z,20.20
2019-06-15T10:32:34.665Z,20.30
2019-06-15T10:35:06.022Z,20.30
2019-06-15T10:37:34.833Z,20.30
2019-06-15T10:40:08.661Z,20.40
2019-06-15T10:42:37.292Z,20.30
2019-06-15T10:45:07.630Z,20.40
2019-06-15T10:47:36.297Z,20.50
2019-06-15T10:50:07.241Z,20.50
2019-06-15T10:52:35.909Z,20.60
2019-06-15T10:55:09.379Z,20.60
2019-06-15T10:57:38.037Z,20.80
2019-06-15T11:00:08.300Z,20.90
2019-06-15T11:02:36.991Z,21.10
2019-06-15T11:05:07.585Z,21.20
2019-06-15T11:07:36.434Z,21.20
2019-06-15T11:10:07.762Z,21.20
2019-06-15T11:12:45.804Z,21.00
2019-06-15T11:15:08.005Z,20.90
2019-06-15T11:17:36.697Z,20.90
2019-06-15T11:20:06.390Z,20.90
2019-06-15T11:22:35.054Z,20.90
2019-06-15T11:25:06.541Z,21.00
2019-06-15T11:27:35.186Z,21.00
2019-06-15T11:30:13.549Z,21.10
2019-06-15T11:32:39.070Z,21.10
2019-06-15T11:35:08.313Z,21.00
2019-06-15T11:37:36.930Z,20.90
2019-06-15T11:40:07.130Z,20.80
2019-06-15T11:42:35.712Z,20.80
2019-06-15T11:45:06.666Z,20.70
2019-06-15T11:47:35.725Z,20.60
2019-06-15T11:50:05.682Z,20.50
2019-06-15T11:52:34.561Z,20.50
2019-06-15T11:55:04.149Z,20.50
2019-06-15T11:57:33.091Z,20.50
2019-06-15T12:00:01.991Z,20.40
2019-06-15T12:02:30.584Z,20.40
2019-06-15T12:04:59.192Z,20.40
2019-06-15T12:07:28.095Z,20.40
2019-06-15T12:09:57.034Z,20.40
2019-06-15T12:12:25.649Z,20.40
2019-06-15T12:14:54.239Z,20.50
2019-06-15T12:17:22.861Z,20.60
2019-06-15T12:19:51.769Z,20.80
2019-06-15T12:22:20.351Z,21.00
2019-06-15T12:24:49.242Z,21.10
2019-06-15T12:27:17.852Z,21.20
2019-06-15T12:29:46.758Z,21.30
2019-06-15T12:32:15.374Z,21.40
2019-06-15T12:34:44.014Z,21.50
2019-06-15T12:37:12.630Z,21.50
2019-06-15T12:39:42.013Z,21.50
2019-06-15T12:42:11.104Z,21.40
2019-06-15T12:44:39.947Z,21.30
2019-06-15T12:47:08.815Z,21.30
2019-06-15T12:49:37.577Z,21.20
2019-06-15T12:52:06.241Z,21.20
2019-06-15T12:54:35.509Z,21.30
2019-06-15T12:57:04.137Z,21.40
2019-06-15T12:59:32.785Z,21.50
2019-06-15T13:02:01.424Z,21.50
2019-06-15T13:04:30.497Z,21.70
2019-06-15T13:06:59.072Z,21.80
2019-06-15T13:09:27.660Z,22.00
2019-06-15T13:11:56.290Z,22.10
2019-06-15T13:14:24.874Z,22.10
2019-06-15T13:16:53.494Z,22.10
2019-06-15T13:19:22.085Z,22.10
2019-06-15T13:21:51.006Z,22.00
2019-06-15T13:24:19.654Z,21.80
2019-06-15T13:26:48.517Z,21.70
2019-06-15T13:29:17.377Z,21.60
2019-06-15T13:31:46.005Z,21.50
2019-06-15T13:34:14.780Z,21.40
2019-06-15T13:36:43.716Z,21.30
2019-06-15T13:39:12.619Z,21.30
2019-06-15T13:41:41.516Z,21.30
2019-06-15T13:44:10.096Z,21.20
2019-06-15T13:46:38.965Z,21.20
2019-06-15T13:49:07.594Z,21.10
2019-06-15T13:51:36.719Z,21.00
2019-06-15T13:54:05.301Z,20.90
2019-06-15T13:56:34.002Z,20.70
2019-06-15T13:59:02.610Z,20.90
2019-06-15T14:01:34.330Z,21.30
2019-06-15T14:04:01.540Z,21.80
2019-06-15T14:06:30.395Z,22.20
2019-06-15T14:08:58.985Z,22.50
2019-06-15T14:11:27.624Z,22.70
2019-06-15T14:13:56.342Z,22.90
2019-06-15T14:16:25.003Z,23.10
2019-06-15T14:18:53.620Z,23.10
2019-06-15T14:21:22.508Z,23.10
2019-06-15T14:23:51.104Z,23.10
2019-06-15T14:26:19.742Z,22.90
2019-06-15T14:28:48.513Z,22.90
2019-06-15T14:31:17.172Z,23.00
2019-06-15T14:33:45.763Z,23.20
2019-06-15T14:36:14.694Z,23.20
2019-06-15T14:38:43.605Z,23.20
2019-06-15T14:41:12.197Z,23.00
2019-06-15T14:43:40.814Z,22.90
2019-06-15T14:46:09.722Z,23.00
2019-06-15T14:48:38.630Z,22.90
2019-06-15T14:51:07.247Z,23.00
2019-06-15T14:53:38.785Z,23.00
2019-06-15T14:56:07.481Z,22.90
2019-06-15T14:58:36.560Z,23.10
2019-06-15T15:01:06.519Z,23.20
2019-06-15T15:03:37.639Z,23.20
2019-06-15T15:06:06.325Z,23.20
2019-06-15T15:08:36.814Z,23.20
2019-06-15T15:11:06.657Z,23.20
2019-06-15T15:13:36.603Z,23.30
2019-06-15T15:16:07.120Z,23.40
2019-06-15T15:18:35.936Z,23.50
2019-06-15T15:21:06.630Z,23.50
2019-06-15T15:23:36.172Z,23.50
2019-06-15T15:26:06.738Z,23.50
2019-06-15T15:28:36.603Z,23.60
2019-06-15T15:31:06.504Z,23.50
2019-06-15T15:33:36.445Z,23.50
2019-06-15T15:36:06.952Z,23.50
2019-06-15T15:38:36.312Z,23.50
2019-06-15T15:41:06.732Z,23.50
2019-06-15T15:43:36.972Z,23.30
2019-06-15T15:46:07.117Z,23.20
2019-06-15T15:48:36.405Z,23.30
2019-06-15T15:51:06.532Z,23.10
2019-06-15T15:53:37.462Z,23.00
2019-06-15T15:56:06.401Z,22.90
2019-06-15T15:58:36.295Z,23.00
2019-06-15T16:01:06.535Z,22.90
2019-06-15T16:03:37.025Z,23.00
2019-06-15T16:06:05.749Z,23.10
2019-06-15T16:08:34.332Z,23.20
2019-06-15T16:11:02.925Z,23.20
2019-06-15T16:13:31.752Z,23.20
2019-06-15T16:16:00.698Z,23.10
2019-06-15T16:18:29.605Z,23.10
2019-06-15T16:20:58.208Z,23.10
2019-06-15T16:23:26.820Z,23.00
2019-06-15T16:25:55.729Z,23.00
2019-06-15T16:28:26.344Z,23.00
2019-06-15T16:31:08.705Z,23.10
2019-06-15T16:33:26.584Z,23.10
2019-06-15T16:35:56.936Z,23.20
2019-06-15T16:38:27.525Z,23.20
2019-06-15T16:40:56.191Z,23.00
2019-06-15T16:43:28.070Z,23.30
2019-06-15T16:45:57.078Z,23.20
2019-06-15T16:48:26.153Z,23.10
2019-06-15T16:50:57.626Z,23.10
2019-06-15T16:53:26.107Z,23.00
2019-06-15T16:55:56.577Z,22.90
2019-06-15T16:58:26.474Z,22.80
2019-06-15T17:00:57.034Z,22.70
2019-06-15T17:03:29.108Z,22.60
2019-06-15T17:05:57.398Z,22.50
2019-06-15T17:08:26.372Z,22.40
2019-06-15T17:10:56.230Z,22.10
2019-06-15T17:13:25.960Z,21.90
2019-06-15T17:15:56.984Z,21.80
2019-06-15T17:18:26.237Z,21.80
2019-06-15T17:20:56.507Z,21.80
2019-06-15T17:23:27.656Z,21.70
2019-06-15T17:25:56.561Z,21.70
2019-06-15T17:28:26.549Z,21.70
2019-06-15T17:30:56.652Z,21.70
2019-06-15T17:33:37.012Z,21.70
2019-06-15T17:36:02.542Z,21.70
2019-06-15T17:38:27.411Z,21.70
2019-06-15T17:40:57.076Z,21.60
2019-06-15T17:43:26.820Z,21.60
2019-06-15T17:45:56.480Z,21.40
2019-06-15T17:48:25.602Z,21.30
2019-06-15T17:50:57.017Z,21.30
2019-06-15T17:53:26.352Z,21.20
2019-06-15T17:55:56.097Z,21.20
2019-06-15T17:58:26.180Z,21.10
2019-06-15T18:00:57.268Z,21.00
2019-06-15T18:03:26.099Z,20.90
2019-06-15T18:05:58.061Z,20.90
2019-06-15T18:08:26.915Z,20.80
2019-06-15T18:10:56.355Z,20.70
2019-06-15T18:13:25.044Z,20.60
2019-06-15T18:15:56.511Z,20.60
2019-06-15T18:18:24.149Z,20.60
2019-06-15T18:20:53.044Z,20.60
2019-06-15T18:23:22.010Z,20.60
2019-06-15T18:25:50.989Z,20.50
2019-06-15T18:28:19.991Z,20.50
2019-06-15T18:30:49.138Z,20.50
2019-06-15T18:33:17.784Z,20.40
2019-06-15T18:35:47.597Z,20.30
2019-06-15T18:38:16.411Z,20.20
2019-06-15T18:40:45.430Z,20.10
2019-06-15T18:43:16.460Z,20.10
2019-06-15T18:45:46.910Z,20.10
2019-06-15T18:48:16.877Z,20.00
2019-06-15T18:50:45.285Z,19.90
2019-06-15T18:53:13.937Z,19.90
2019-06-15T18:55:42.969Z,19.80
2019-06-15T18:58:11.877Z,19.80
2019-06-15T19:00:41.413Z,19.80
2019-06-15T19:03:10.915Z,19.70
2019-06-15T19:05:39.677Z,19.70
2019-06-15T19:08:08.329Z,19.60
2019-06-15T19:10:37.558Z,19.50
2019-06-15T19:13:07.493Z,19.40
2019-06-15T19:15:37.389Z,19.20
2019-06-15T19:18:07.533Z,18.90
2019-06-15T19:20:37.243Z,18.80
2019-06-15T19:23:07.055Z,18.70
2019-06-15T19:25:36.668Z,18.60
2019-06-15T19:28:05.675Z,18.40
2019-06-15T19:30:37.065Z,18.20
2019-06-15T19:33:05.218Z,18.20
2019-06-15T19:35:36.263Z,18.10
2019-06-15T19:38:06.326Z,18.00
2019-06-15T19:40:37.832Z,18.00
2019-06-15T19:43:06.681Z,17.90
2019-06-15T19:45:36.982Z,17.90
2019-06-15T19:48:06.604Z,17.80
2019-06-15T19:50:36.361Z,17.70
2019-06-15T19:53:07.060Z,17.60
2019-06-15T19:55:36.293Z,17.60
2019-06-15T19:58:07.325Z,17.50
2019-06-15T20:00:38.045Z,17.40
2019-06-15T20:03:07.314Z,17.30
2019-06-15T20:05:37.069Z,17.20
2019-06-15T20:08:09.702Z,17.20
2019-06-15T20:10:39.075Z,17.10
2019-06-15T20:13:07.991Z,17.10
2019-06-15T20:15:40.034Z,17.10
2019-06-15T20:18:08.901Z,17.10
2019-06-15T20:20:41.072Z,17.10
2019-06-15T20:23:10.261Z,17.10
2019-06-15T20:25:39.769Z,17.00
2019-06-15T20:28:11.427Z,17.00
2019-06-15T20:30:40.403Z,17.00
2019-06-15T20:33:09.613Z,17.00
2019-06-15T20:35:40.270Z,16.90
2019-06-15T20:38:10.154Z,16.90
2019-06-15T20:40:39.307Z,16.80
2019-06-15T20:43:11.214Z,16.70
2019-06-15T20:45:41.254Z,16.70
2019-06-15T20:48:10.496Z,16.70
2019-06-15T20:50:39.229Z,16.60
2019-06-15T20:53:09.462Z,16.70
2019-06-15T20:55:38.307Z,16.60
2019-06-15T20:58:06.971Z,16.70
2019-06-15T21:00:36.740Z,16.60
2019-06-15T21:03:06.848Z,16.60
2019-06-15T21:05:41.572Z,16.60
2019-06-15T21:08:07.057Z,16.60
2019-06-15T21:10:37.355Z,16.60
2019-06-15T21:13:06.130Z,16.50
2019-06-15T21:15:37.776Z,16.50
2019-06-15T21:18:06.867Z,16.40
2019-06-15T21:20:36.384Z,16.40
2019-06-15T21:23:06.590Z,16.40
2019-06-15T21:25:35.445Z,16.40
2019-06-15T21:28:06.502Z,16.40
2019-06-15T21:30:36.855Z,16.40
2019-06-15T21:33:07.059Z,16.50
2019-06-15T21:35:48.464Z,16.60
2019-06-15T21:38:06.459Z,16.50
2019-06-15T21:40:36.813Z,16.50
2019-06-15T21:43:07.044Z,16.60
2019-06-15T21:45:36.807Z,16.60
2019-06-15T21:48:06.695Z,16.60
2019-06-15T21:50:36.230Z,16.60
2019-06-15T21:53:06.889Z,16.60
2019-06-15T21:55:36.478Z,16.60
2019-06-15T21:58:07.660Z,16.60
2019-06-15T22:00:56.784Z,16.60
2019-06-15T22:03:26.498Z,16.60
2019-06-15T22:06:02.709Z,16.60
2019-06-15T22:08:26.409Z,16.60
2019-06-15T22:10:55.170Z,16.60
2019-06-15T22:13:23.785Z,16.60
2019-06-15T22:15:52.369Z,16.60
2019-06-15T22:18:21.001Z,16.60
2019-06-15T22:20:49.693Z,16.60
2019-06-15T22:23:18.551Z,16.60
2019-06-15T22:25:47.136Z,16.60
2019-06-15T22:28:16.433Z,16.60
2019-06-15T22:30:46.198Z,16.60
2019-06-15T22:33:16.436Z,16.60
2019-06-15T22:35:47.258Z,16.60
2019-06-15T22:38:16.042Z,16.60
2019-06-15T22:40:46.854Z,16.60
2019-06-15T22:43:16.765Z,16.60
2019-06-15T22:45:49.431Z,16.60
2019-06-15T22:48:16.580Z,16.60
2019-06-15T22:50:46.913Z,16.60
2019-06-15T22:53:16.614Z,16.60
2019-06-15T22:55:46.472Z,16.60
2019-06-15T22:58:17.769Z,16.60
2019-06-15T23:00:46.928Z,16.60
2019-06-15T23:03:16.801Z,16.60
2019-06-15T23:05:46.505Z,16.60
2019-06-15T23:08:16.315Z,16.50
2019-06-15T23:10:46.914Z,16.50
2019-06-15T23:13:16.024Z,16.50
2019-06-15T23:15:47.052Z,16.50
2019-06-15T23:18:17.134Z,16.50
2019-06-15T23:20:46.183Z,16.50
2019-06-15T23:23:16.154Z,16.40
2019-06-15T23:25:47.255Z,16.50
2019-06-15T23:28:16.577Z,16.40
2019-06-15T23:30:47.180Z,16.40
2019-06-15T23:33:17.329Z,16.30
2019-06-15T23:35:53.524Z,16.20
2019-06-15T23:38:22.464Z,16.20
2019-06-15T23:40:51.065Z,16.10
2019-06-15T23:43:19.656Z,16.00
2019-06-15T23:45:48.549Z,15.90
2019-06-15T23:48:17.957Z,15.80
2019-06-15T23:50:46.548Z,15.80
2019-06-15T23:53:16.846Z,15.80
2019-06-15T23:55:47.294Z,15.80
2019-06-15T23:58:17.581Z,15.80
